Time;durP1;ratioP1;P1;durP2;ratioP2;P2;SDS_P1;SDS_P2;PMS_P1;PMS_P2;Temp;Humidity;BMP_temperature;BMP_pressure;BME280_temperature;BME280_humidity;BME280_pressure;Samples;Min_cycle;Max_cycle;Signal;HPM_P1;HPM_P2
2022/07/24 10:54:17;;;;;;;1.92;1.83;;;22.50;56.70;;;;;;4708470;27;12515996;-91
2022/07/24 10:56:48;;;;;;;1.83;1.73;;;22.40;56.20;;;;;;5105059;28;20183;-87
2022/07/24 10:59:19;;;;;;;1.70;1.60;;;22.50;56.20;;;;;;5068870;28;20248;-88
2022/07/24 11:01:51;;;;;;;2.05;1.67;;;22.60;56.90;;;;;;5068878;28;20192;-88
2022/07/24 11:09:59;;;;;;;;;;;;;;;;;;;;;
2022/07/24 11:13:13;;;;;;;;;;;;;;;;;;;;;
2022/07/24 11:19:47;;;;;;;1.80;1.70;;;22.60;55.60;;;;;;4905004;29;20207;-88
2022/07/24 11:22:49;;;;;;;;;;;;;;;;;;;;;
2022/07/24 11:26:23;;;;;;;;;;;;;;;;;;;;;
2022/07/24 11:29:43;;;;;;;1.98;1.88;;;22.70;55.60;;;;;;4880976;29;20246;-88
2022/07/24 11:32:34;;;;;;;1.80;1.70;;;22.70;55.60;;;;;;4905466;29;20243;-88
2022/07/24 11:35:44;;;;;;;1.60;1.50;;;22.70;55.50;;;;;;4892103;29;20639;-88
2022/07/24 11:38:30;;;;;;;1.98;1.88;;;22.70;55.50;;;;;;4813593;29;20267;-88
2022/07/24 11:41:08;;;;;;;1.60;1.50;;;22.70;55.50;;;;;;4765499;30;20192;-88
2022/07/24 11:43:56;;;;;;;1.95;1.85;;;22.70;55.50;;;;;;4774622;30;20260;-88
2022/07/24 11:46:39;;;;;;;1.90;1.80;;;22.80;55.50;;;;;;4816887;29;20190;-87
2022/07/24 11:49:07;;;;;;;1.90;1.73;;;22.70;55.40;;;;;;4816357;29;20197;-88
2022/07/24 11:51:49;;;;;;;1.80;1.70;;;22.80;55.30;;;;;;4820294;29;20186;-88
2022/07/24 11:54:33;;;;;;;1.90;1.80;;;22.80;55.30;;;;;;4855483;29;20294;-88
2022/07/24 11:57:31;;;;;;;1.75;1.60;;;22.80;55.20;;;;;;4886251;29;20191;-88
2022/07/24 11:59:56;;;;;;;2.10;1.92;;;22.80;55.20;;;;;;4904351;29;20183;-89
2022/07/24 12:02:23;;;;;;;1.80;1.70;;;22.80;55.30;;;;;;4899628;29;20220;-88
2022/07/24 12:04:53;;;;;;;1.80;1.70;;;22.70;55.30;;;;;;4907813;29;20185;-89
2022/07/24 12:07:32;;;;;;;2.00;1.90;;;22.80;55.30;;;;;;4912464;29;20190;-87
2022/07/24 12:09:59;;;;;;;1.73;1.63;;;22.80;55.20;;;;;;4910324;29;20194;-87
2022/07/24 12:12:30;;;;;;;1.65;1.55;;;22.80;55.20;;;;;;4910397;29;20215;-87
2022/07/24 12:15:21;;;;;;;1.80;1.70;;;22.90;55.30;;;;;;4939455;29;20632;-87
2022/07/24 12:18:12;;;;;;;1.70;1.60;;;22.90;55.10;;;;;;4969938;28;20180;-88
2022/07/24 12:20:40;;;;;;;1.60;1.50;;;22.90;55.00;;;;;;4932685;29;20216;-87
2022/07/24 12:23:11;;;;;;;1.60;1.40;;;22.90;55.00;;;;;;4943044;29;20275;-87
2022/07/24 12:26:04;;;;;;;1.50;1.40;;;22.90;55.00;;;;;;4926832;29;20191;-88
2022/07/24 12:28:35;;;;;;;1.65;1.55;;;22.90;55.30;;;;;;4913927;29;20289;-88
2022/07/24 12:31:06;;;;;;;1.85;1.75;;;22.90;55.00;;;;;;4900468;29;20189;-87
2022/07/24 12:33:36;;;;;;;2.28;1.70;;;23.00;55.00;;;;;;4913409;29;20210;-87
2022/07/24 12:36:11;;;;;;;1.60;1.50;;;23.00;55.00;;;;;;4945602;29;20197;-88
2022/07/24 12:38:40;;;;;;;2.15;2.03;;;23.00;55.00;;;;;;4957269;29;20607;-88
2022/07/24 12:41:16;;;;;;;1.70;1.60;;;23.00;55.00;;;;;;4965878;29;20644;-87
2022/07/24 12:43:50;;;;;;;1.70;1.33;;;23.00;54.90;;;;;;4951204;29;20204;-86
2022/07/24 12:46:22;;;;;;;1.90;1.80;;;23.00;54.70;;;;;;4911493;29;20279;-88
2022/07/24 12:49:26;;;;;;;2.05;1.73;;;23.00;54.70;;;;;;4875141;29;20202;-87
2022/07/24 12:52:11;;;;;;;1.70;1.60;;;23.00;54.60;;;;;;4841265;29;20240;-89
2022/07/24 12:54:47;;;;;;;1.70;1.60;;;23.00;54.70;;;;;;4796877;29;20210;-87
2022/07/24 12:57:14;;;;;;;1.70;1.60;;;23.00;54.60;;;;;;4801970;29;20193;-86
2022/07/24 12:59:44;;;;;;;2.78;1.60;;;23.10;54.60;;;;;;4811365;29;20198;-87
2022/07/24 13:02:15;;;;;;;1.70;1.60;;;23.00;54.50;;;;;;4804464;29;20198;-87
2022/07/24 13:04:49;;;;;;;1.70;1.60;;;23.10;54.50;;;;;;4804109;29;20199;-88
2022/07/24 13:07:29;;;;;;;1.92;1.63;;;23.00;54.50;;;;;;4805817;29;20193;-88
2022/07/24 13:10:20;;;;;;;2.20;1.80;;;23.10;54.40;;;;;;4856185;29;20227;-89
2022/07/24 13:12:51;;;;;;;2.03;1.90;;;23.00;54.40;;;;;;4856860;29;20224;-87
2022/07/24 13:15:23;;;;;;;1.60;1.50;;;23.10;54.30;;;;;;4843587;29;20195;-88
2022/07/24 13:17:59;;;;;;;1.75;1.65;;;23.10;54.30;;;;;;4943175;29;20210;-87
2022/07/24 13:20:35;;;;;;;2.95;1.80;;;23.10;54.30;;;;;;4910503;29;20183;-88
2022/07/24 13:23:08;;;;;;;1.90;1.80;;;23.10;54.20;;;;;;4870722;29;20193;-87
2022/07/24 13:25:42;;;;;;;1.90;1.70;;;23.10;54.20;;;;;;4883003;29;20187;-87
2022/07/24 13:28:12;;;;;;;1.90;1.80;;;23.10;54.10;;;;;;4904067;29;20188;-87
2022/07/24 13:30:53;;;;;;;1.70;1.60;;;23.10;54.20;;;;;;4918398;29;20203;-88
2022/07/24 13:33:22;;;;;;;1.85;1.75;;;23.10;54.10;;;;;;4922184;29;20244;-88
2022/07/24 13:35:55;;;;;;;1.70;1.60;;;23.10;54.10;;;;;;4937183;29;20183;-87
2022/07/24 13:38:54;;;;;;;1.90;1.80;;;23.10;54.00;;;;;;4931843;29;20177;-87
2022/07/24 13:41:27;;;;;;;1.70;1.60;;;23.10;54.00;;;;;;4945907;29;20691;-87
2022/07/24 13:44:05;;;;;;;2.08;1.80;;;23.10;54.00;;;;;;4920216;29;20262;-87
2022/07/24 13:46:33;;;;;;;1.90;1.70;;;23.20;53.80;;;;;;4943115;29;20186;-90
2022/07/24 13:49:19;;;;;;;2.00;1.90;;;23.20;53.70;;;;;;4909671;29;20190;-88
2022/07/24 13:51:48;;;;;;;2.40;1.77;;;23.20;53.80;;;;;;4941820;29;20253;-86
2022/07/24 13:54:19;;;;;;;1.80;1.70;;;23.20;54.10;;;;;;4912646;29;20214;-88
2022/07/24 13:56:50;;;;;;;1.70;1.60;;;23.20;54.20;;;;;;4915495;29;20224;-88
2022/07/24 13:59:18;;;;;;;1.70;1.60;;;23.20;54.10;;;;;;4930031;29;20267;-88
2022/07/24 14:01:49;;;;;;;1.67;1.58;;;23.20;54.00;;;;;;4977258;28;20179;-88
2022/07/24 14:04:23;;;;;;;1.70;1.60;;;23.30;53.90;;;;;;4990225;28;20163;-87
2022/07/24 14:07:02;;;;;;;1.73;1.63;;;23.30;53.80;;;;;;5004174;28;20192;-88
2022/07/24 14:09:37;;;;;;;2.10;2.00;;;23.40;53.80;;;;;;5003952;28;20247;-88
2022/07/24 14:12:12;;;;;;;1.83;1.70;;;23.30;53.70;;;;;;4989132;28;20246;-88
2022/07/24 14:14:42;;;;;;;1.67;1.58;;;23.30;53.60;;;;;;5008484;28;20274;-88
2022/07/24 14:17:27;;;;;;;1.70;1.60;;;23.30;53.50;;;;;;5007834;28;20183;-87
2022/07/24 14:20:02;;;;;;;1.85;1.75;;;23.30;53.50;;;;;;5045078;28;20178;-88
2022/07/24 14:22:37;;;;;;;2.00;1.90;;;23.30;53.40;;;;;;5044525;28;20601;-89
2022/07/24 14:25:10;;;;;;;1.70;1.60;;;23.30;53.30;;;;;;5042667;28;20186;-88
2022/07/24 14:27:47;;;;;;;1.92;1.60;;;23.30;53.30;;;;;;5042872;28;20221;-88
2022/07/24 14:30:15;;;;;;;1.48;1.38;;;23.40;53.20;;;;;;5019828;28;20214;-87
2022/07/24 14:32:47;;;;;;;1.90;1.80;;;23.40;53.10;;;;;;5004385;28;20246;-87
2022/07/24 14:35:17;;;;;;;2.05;1.65;;;23.40;53.00;;;;;;4972610;28;20198;-88
2022/07/24 14:37:48;;;;;;;1.75;1.65;;;23.40;53.00;;;;;;4970812;28;20190;-87
2022/07/24 14:40:20;;;;;;;1.77;1.67;;;23.40;52.90;;;;;;4954643;28;20195;-87
2022/07/24 14:42:54;;;;;;;2.13;1.92;;;23.40;52.80;;;;;;4971516;28;20179;-87
2022/07/24 14:45:27;;;;;;;1.63;1.52;;;23.40;52.70;;;;;;4926967;29;20276;-87
2022/07/24 14:47:59;;;;;;;1.80;1.70;;;23.40;52.60;;;;;;4910452;29;20206;-87
2022/07/24 14:50:29;;;;;;;1.67;1.58;;;23.40;52.60;;;;;;4873227;29;20200;-87
2022/07/24 14:53:00;;;;;;;2.40;1.77;;;23.40;52.60;;;;;;4873383;29;20219;-87
2022/07/24 14:55:31;;;;;;;1.60;1.50;;;23.40;52.50;;;;;;4887904;29;20187;-88
2022/07/24 14:57:59;;;;;;;1.90;1.80;;;23.40;52.60;;;;;;4907259;29;20183;-87
2022/07/24 15:00:27;;;;;;;1.70;1.60;;;23.40;52.60;;;;;;4875951;29;20192;-87
2022/07/24 15:02:57;;;;;;;1.50;1.40;;;23.40;52.40;;;;;;4852277;29;20193;-87
2022/07/24 15:05:34;;;;;;;3.03;1.85;;;23.40;52.30;;;;;;4867771;29;20213;-88
2022/07/24 15:08:03;;;;;;;1.80;1.70;;;23.40;52.30;;;;;;4852383;29;20216;-88
2022/07/24 15:10:32;;;;;;;1.70;1.58;;;23.40;52.60;;;;;;4869813;29;20260;-88
2022/07/24 15:13:08;;;;;;;2.47;1.60;;;23.50;52.50;;;;;;4869965;29;20224;-89
2022/07/24 15:15:34;;;;;;;2.03;1.92;;;23.40;52.60;;;;;;4870139;29;20248;-87
2022/07/24 15:18:00;;;;;;;1.92;1.83;;;23.40;52.90;;;;;;4870759;29;20230;-87
2022/07/24 15:20:34;;;;;;;1.88;1.77;;;23.40;53.00;;;;;;4877825;29;20550;-87
2022/07/24 15:23:06;;;;;;;2.35;1.67;;;23.40;53.10;;;;;;4919618;29;20187;-87
2022/07/24 15:25:34;;;;;;;1.80;1.70;;;23.40;53.00;;;;;;4942666;29;20215;-88
2022/07/24 15:28:21;;;;;;;;;;;;;;;;;;;;;
2022/07/24 15:30:51;;;;;;;1.80;1.70;;;23.40;53.00;;;;;;4965146;28;20256;-88
2022/07/24 15:33:17;;;;;;;2.20;2.00;;;23.50;53.00;;;;;;4993695;28;20221;-87
2022/07/24 15:35:48;;;;;;;1.83;1.73;;;23.40;53.00;;;;;;5026413;28;20203;-87
2022/07/24 15:38:17;;;;;;;2.00;1.90;;;23.50;53.10;;;;;;5026995;28;20182;-88
2022/07/24 15:40:48;;;;;;;2.05;1.95;;;23.40;53.00;;;;;;5027057;28;20199;-87
2022/07/24 15:43:15;;;;;;;1.88;1.77;;;23.50;53.00;;;;;;5012086;28;20194;-86
2022/07/24 15:45:46;;;;;;;2.10;2.00;;;23.50;53.00;;;;;;5009079;28;20202;-87
2022/07/24 15:48:18;;;;;;;1.98;1.80;;;23.50;53.00;;;;;;5009184;28;20194;-88
2022/07/24 15:50:50;;;;;;;1.98;1.88;;;23.40;53.10;;;;;;5030920;28;20289;-87
2022/07/24 15:53:19;;;;;;;1.70;1.60;;;23.40;53.00;;;;;;5037041;28;20219;-88
2022/07/24 15:55:52;;;;;;;2.10;1.90;;;23.50;53.00;;;;;;5037295;28;20206;-87
2022/07/24 15:58:19;;;;;;;1.92;1.70;;;23.50;53.00;;;;;;5050071;28;20557;-87
2022/07/24 16:00:53;;;;;;;1.67;1.58;;;23.60;52.80;;;;;;5017877;28;20174;-87
2022/07/24 16:03:24;;;;;;;2.08;1.92;;;23.50;52.80;;;;;;5048112;28;20192;-87
2022/07/24 16:05:52;;;;;;;1.73;1.63;;;23.60;52.80;;;;;;5029759;28;20193;-87
2022/07/24 16:08:18;;;;;;;1.60;1.50;;;23.60;52.80;;;;;;5031089;28;20205;-87
2022/07/24 16:10:52;;;;;;;1.77;1.67;;;23.60;53.40;;;;;;5029993;28;20174;-87
2022/07/24 16:13:25;;;;;;;1.75;1.65;;;23.60;52.80;;;;;;5056003;28;20217;-88
2022/07/24 16:15:54;;;;;;;1.77;1.67;;;23.70;52.80;;;;;;5049405;28;20174;-87
2022/07/24 16:18:27;;;;;;;1.80;1.70;;;23.70;52.80;;;;;;5033751;28;20177;-88
2022/07/24 16:20:54;;;;;;;1.92;1.80;;;23.60;52.70;;;;;;5033624;28;20170;-87
2022/07/24 16:23:20;;;;;;;1.65;1.55;;;23.50;52.60;;;;;;5032524;28;20257;-87
2022/07/24 16:25:49;;;;;;;1.77;1.65;;;23.60;52.70;;;;;;5033477;28;20232;-86
2022/07/24 16:28:20;;;;;;;1.88;1.77;;;23.50;52.70;;;;;;5035480;28;20703;-87
2022/07/24 16:30:50;;;;;;;1.83;1.73;;;23.60;52.80;;;;;;5053473;28;20173;-87
2022/07/24 16:33:17;;;;;;;1.77;1.67;;;23.50;52.80;;;;;;5051954;28;20302;-88
2022/07/24 16:35:47;;;;;;;1.80;1.70;;;23.50;52.90;;;;;;5036896;28;20181;-87
2022/07/24 16:38:16;;;;;;;1.90;1.80;;;23.50;53.10;;;;;;5053201;28;20170;-87
2022/07/24 16:40:44;;;;;;;1.75;1.65;;;23.50;53.00;;;;;;5075191;28;20177;-87
2022/07/24 16:43:14;;;;;;;1.85;1.75;;;23.50;53.10;;;;;;5073428;28;20172;-87
2022/07/24 16:45:43;;;;;;;1.65;1.55;;;23.50;53.30;;;;;;5074192;28;20175;-88
2022/07/24 16:48:15;;;;;;;1.70;1.60;;;23.50;53.20;;;;;;5073736;28;20177;-88
2022/07/24 16:50:44;;;;;;;1.80;1.70;;;23.50;53.50;;;;;;5074266;28;20176;-87
2022/07/24 16:53:11;;;;;;;1.70;1.60;;;23.40;53.60;;;;;;5090403;28;20778;-87
2022/07/24 16:55:45;;;;;;;1.70;1.60;;;23.40;54.00;;;;;;5090362;28;20169;-87
2022/07/24 16:58:11;;;;;;;1.80;1.70;;;23.30;53.90;;;;;;5032860;28;20192;-88
2022/07/24 17:00:38;;;;;;;2.20;1.70;;;23.30;54.00;;;;;;5029378;28;20183;-86
2022/07/24 17:03:06;;;;;;;2.33;2.13;;;23.30;54.10;;;;;;5012930;28;20264;-87
2022/07/24 17:05:40;;;;;;;1.90;1.80;;;23.30;54.40;;;;;;5012588;28;20236;-87
2022/07/24 17:08:07;;;;;;;1.55;1.45;;;23.30;54.50;;;;;;4996830;28;20186;-87
2022/07/24 17:10:38;;;;;;;1.85;1.73;;;23.30;54.70;;;;;;5012550;28;20639;-87
2022/07/24 17:13:07;;;;;;;1.65;1.55;;;23.30;54.50;;;;;;5012970;28;20343;-88
2022/07/24 17:15:33;;;;;;;1.77;1.67;;;23.20;54.60;;;;;;4996794;28;20178;-87
2022/07/24 17:18:05;;;;;;;2.10;2.00;;;23.20;54.70;;;;;;4996122;28;20217;-87
2022/07/24 17:20:37;;;;;;;1.95;1.83;;;23.20;54.80;;;;;;5012753;28;20185;-88
2022/07/24 17:23:13;;;;;;;2.25;2.05;;;23.20;54.80;;;;;;4973689;28;20218;-87
2022/07/24 17:25:47;;;;;;;1.90;1.80;;;23.20;55.10;;;;;;4974819;28;20190;-88
2022/07/24 17:28:18;;;;;;;1.98;1.88;;;23.20;55.20;;;;;;4974677;28;20199;-88
2022/07/24 17:30:51;;;;;;;2.05;1.95;;;23.20;55.30;;;;;;4993132;28;20183;-87
2022/07/24 17:33:17;;;;;;;1.98;1.88;;;23.20;55.70;;;;;;4992823;28;20211;-87
2022/07/24 17:35:53;;;;;;;2.28;2.08;;;23.20;56.10;;;;;;4993861;28;20176;-88
2022/07/24 17:38:28;;;;;;;2.30;2.10;;;23.20;56.10;;;;;;5009017;28;20254;-87
2022/07/24 17:40:56;;;;;;;2.25;2.05;;;23.10;56.20;;;;;;4993871;28;20554;-86
2022/07/24 17:43:22;;;;;;;2.30;2.20;;;23.20;56.50;;;;;;5019406;28;20944;-87
2022/07/24 17:45:50;;;;;;;2.20;2.10;;;23.10;56.70;;;;;;5015720;28;20174;-87
2022/07/24 17:48:17;;;;;;;2.20;2.10;;;23.10;56.90;;;;;;5015787;28;20214;-89
2022/07/24 17:50:45;;;;;;;2.47;2.28;;;23.00;57.30;;;;;;5014956;28;20170;-86
2022/07/24 17:53:11;;;;;;;2.40;2.20;;;23.00;57.40;;;;;;5022890;28;20212;-87
2022/07/24 17:55:39;;;;;;;2.50;2.30;;;23.00;57.50;;;;;;5047963;28;20178;-87
2022/07/24 17:58:05;;;;;;;2.25;2.05;;;23.00;57.80;;;;;;5015562;28;20181;-87
2022/07/24 18:00:36;;;;;;;2.50;2.30;;;23.00;57.80;;;;;;5014970;28;20181;-86
2022/07/24 18:03:04;;;;;;;2.28;2.08;;;23.00;57.90;;;;;;5014884;28;20193;-87
2022/07/24 18:05:35;;;;;;;2.50;2.30;;;23.00;58.00;;;;;;4988706;28;20180;-87
2022/07/24 18:08:05;;;;;;;2.70;2.50;;;22.90;58.20;;;;;;4989005;28;20187;-87
2022/07/24 18:10:32;;;;;;;2.70;2.50;;;22.90;58.40;;;;;;4972597;28;20705;-87
2022/07/24 18:12:59;;;;;;;2.45;2.25;;;22.80;58.70;;;;;;4972792;28;20227;-87
2022/07/24 18:15:25;;;;;;;2.42;2.22;;;22.80;59.20;;;;;;4981470;28;20711;-88
2022/07/24 18:17:53;;;;;;;2.40;2.20;;;22.80;59.30;;;;;;4949599;29;20189;-88
2022/07/24 18:20:19;;;;;;;2.33;2.13;;;22.80;59.60;;;;;;4950632;29;20231;-87
2022/07/24 18:22:46;;;;;;;2.35;2.15;;;22.70;59.50;;;;;;4949838;29;20181;-87
2022/07/24 18:25:14;;;;;;;2.95;2.70;;;22.70;59.80;;;;;;4950053;29;20218;-87
2022/07/24 18:27:41;;;;;;;2.67;2.47;;;22.70;60.10;;;;;;5002646;28;20242;-87
2022/07/24 18:30:08;;;;;;;2.83;2.63;;;22.70;60.30;;;;;;5004846;28;20179;-87
2022/07/24 18:32:35;;;;;;;2.53;2.33;;;22.60;60.40;;;;;;5004692;28;20199;-88
2022/07/24 18:35:01;;;;;;;2.85;2.65;;;22.70;60.50;;;;;;4988809;28;20187;-87
2022/07/24 18:37:27;;;;;;;2.60;2.40;;;22.60;60.50;;;;;;5004359;28;20182;-88
2022/07/24 18:39:53;;;;;;;2.40;2.20;;;22.60;60.70;;;;;;5008104;28;20190;-87
2022/07/24 18:42:22;;;;;;;2.70;2.50;;;22.60;60.80;;;;;;4991277;28;20176;-87
2022/07/24 18:44:51;;;;;;;2.80;2.60;;;22.60;60.90;;;;;;4992377;28;20267;-87
2022/07/24 18:47:17;;;;;;;2.70;2.50;;;22.50;61.00;;;;;;5026423;28;20193;-88
2022/07/24 18:49:43;;;;;;;2.70;2.50;;;22.50;61.20;;;;;;5047634;28;20170;-87
2022/07/24 18:52:13;;;;;;;2.92;2.72;;;22.60;61.40;;;;;;5047327;28;20240;-87
2022/07/24 18:54:44;;;;;;;2.92;2.72;;;22.60;61.50;;;;;;5047632;28;20230;-87
2022/07/24 18:57:14;;;;;;;2.95;2.65;;;22.60;61.50;;;;;;5047751;28;20170;-87
2022/07/24 18:59:40;;;;;;;3.08;2.78;;;22.50;61.60;;;;;;5040764;28;20175;-88
2022/07/24 19:02:06;;;;;;;2.53;2.33;;;22.50;61.70;;;;;;5023693;28;20186;-87
2022/07/24 19:04:37;;;;;;;2.75;2.55;;;22.40;61.80;;;;;;5040741;28;20214;-87
2022/07/24 19:07:04;;;;;;;2.70;2.50;;;22.50;61.80;;;;;;5040299;28;20187;-87
2022/07/24 19:09:31;;;;;;;2.78;2.58;;;22.40;62.10;;;;;;5023634;28;20171;-87
2022/07/24 19:11:58;;;;;;;2.58;2.38;;;22.40;62.10;;;;;;5040543;28;20688;-87
2022/07/24 19:14:24;;;;;;;2.83;2.63;;;22.40;62.20;;;;;;5042396;28;20183;-89
2022/07/24 19:16:51;;;;;;;2.80;2.60;;;22.30;62.20;;;;;;5044845;28;20183;-87
2022/07/24 19:19:22;;;;;;;3.10;2.90;;;22.40;62.30;;;;;;5044985;28;20180;-87
2022/07/24 19:21:48;;;;;;;2.78;2.58;;;22.30;62.50;;;;;;5065827;28;20566;-87
2022/07/24 19:24:15;;;;;;;2.95;2.72;;;22.30;62.60;;;;;;5037789;28;20181;-87
2022/07/24 19:26:40;;;;;;;2.90;2.60;;;22.30;62.50;;;;;;5011137;28;20199;-87
2022/07/24 19:29:07;;;;;;;3.13;2.60;;;22.30;62.60;;;;;;5027259;28;20183;-87
2022/07/24 19:31:34;;;;;;;3.10;2.80;;;22.30;62.60;;;;;;5027960;28;20179;-87
2022/07/24 19:34:06;;;;;;;3.15;2.88;;;22.30;62.60;;;;;;5027884;28;20218;-89
2022/07/24 19:36:33;;;;;;;2.50;2.30;;;22.30;62.50;;;;;;5027893;28;20179;-88
2022/07/24 19:38:59;;;;;;;2.80;2.60;;;22.20;62.50;;;;;;5027160;28;20736;-87
2022/07/24 19:41:29;;;;;;;2.85;2.65;;;22.20;62.20;;;;;;5026858;28;20211;-87
2022/07/24 19:43:59;;;;;;;2.95;2.75;;;22.30;62.20;;;;;;5027598;28;20175;-87
2022/07/24 19:46:27;;;;;;;3.30;3.00;;;22.20;62.10;;;;;;5027803;28;20179;-88
2022/07/24 19:48:54;;;;;;;3.08;2.78;;;22.20;62.10;;;;;;5007713;28;20176;-87
2022/07/24 19:51:20;;;;;;;3.15;2.85;;;22.20;62.10;;;;;;4971930;28;20611;-87
2022/07/24 19:53:54;;;;;;;2.63;2.42;;;22.20;62.10;;;;;;4971958;28;20220;-88
2022/07/24 19:56:22;;;;;;;2.78;2.58;;;22.20;62.10;;;;;;5007748;28;20183;-89
2022/07/24 19:58:52;;;;;;;2.70;2.50;;;22.20;62.10;;;;;;4997317;28;20183;-87
2022/07/24 20:01:23;;;;;;;3.20;2.90;;;22.10;62.00;;;;;;5011165;28;20247;-87
2022/07/24 20:03:52;;;;;;;3.28;2.97;;;22.10;62.00;;;;;;5027114;28;20187;-87
2022/07/24 20:06:22;;;;;;;3.15;2.85;;;22.10;62.00;;;;;;5025412;28;20190;-87
2022/07/24 20:08:53;;;;;;;2.80;2.60;;;22.10;62.00;;;;;;5027071;28;20214;-87
2022/07/24 20:11:19;;;;;;;2.80;2.60;;;22.10;62.00;;;;;;5026978;28;20194;-87
2022/07/24 20:13:47;;;;;;;2.90;2.70;;;22.10;62.00;;;;;;5010737;28;20586;-86
2022/07/24 20:16:19;;;;;;;2.78;2.58;;;22.00;61.90;;;;;;5010483;28;20179;-87
2022/07/24 20:18:45;;;;;;;3.03;2.72;;;22.10;62.00;;;;;;5011212;28;20186;-87
2022/07/24 20:21:13;;;;;;;2.90;2.70;;;22.00;61.90;;;;;;5013899;28;20174;-90
2022/07/24 20:23:39;;;;;;;2.60;2.40;;;22.00;62.00;;;;;;5046700;28;20645;-90
2022/07/24 20:26:06;;;;;;;2.80;2.60;;;22.00;62.00;;;;;;5045385;28;20606;-89
2022/07/24 20:28:40;;;;;;;3.05;2.75;;;22.00;62.00;;;;;;5021244;28;20182;-90
2022/07/24 20:31:06;;;;;;;3.40;3.10;;;22.00;62.10;;;;;;5051108;28;20713;-90
2022/07/24 20:33:32;;;;;;;2.85;2.65;;;22.00;62.00;;;;;;5037450;28;20201;-89
2022/07/24 20:35:57;;;;;;;2.90;2.70;;;22.00;62.00;;;;;;5036969;28;20184;-89
2022/07/24 20:38:28;;;;;;;3.13;2.83;;;21.90;61.90;;;;;;5009688;28;20179;-89
2022/07/24 20:40:54;;;;;;;3.20;2.90;;;21.90;61.90;;;;;;4994042;28;20186;-90
2022/07/24 20:43:20;;;;;;;3.17;2.88;;;22.00;62.10;;;;;;4993679;28;20188;-89
2022/07/24 20:45:46;;;;;;;3.30;3.00;;;21.90;61.90;;;;;;4994217;28;20178;-89
2022/07/24 20:48:14;;;;;;;2.95;2.72;;;22.00;61.90;;;;;;4977175;28;20241;-89
2022/07/24 20:50:40;;;;;;;3.15;2.85;;;22.00;62.00;;;;;;4977662;28;20198;-90
2022/07/24 20:53:06;;;;;;;3.88;3.50;;;22.00;62.00;;;;;;5011446;28;20222;-89
2022/07/24 20:55:34;;;;;;;3.65;3.35;;;22.00;61.90;;;;;;5013653;28;20254;-90
2022/07/24 20:58:05;;;;;;;3.60;3.30;;;22.00;62.00;;;;;;5013202;28;20217;-89
2022/07/24 21:00:34;;;;;;;3.65;3.35;;;22.00;62.00;;;;;;4996581;28;20186;-89
2022/07/24 21:03:02;;;;;;;3.58;3.28;;;22.00;62.00;;;;;;5018410;28;20706;-90
2022/07/24 21:05:28;;;;;;;3.63;3.33;;;22.00;61.90;;;;;;5049861;28;20178;-89
2022/07/24 21:07:57;;;;;;;3.80;3.38;;;22.00;61.80;;;;;;5049333;28;20257;-89
2022/07/24 21:10:24;;;;;;;3.67;3.38;;;22.00;61.80;;;;;;5085631;28;20188;-87
2022/07/24 21:12:49;;;;;;;3.83;3.42;;;22.00;61.80;;;;;;5073623;28;20580;-87
2022/07/24 21:15:15;;;;;;;3.70;3.40;;;22.10;62.70;;;;;;5106666;28;20180;-87
2022/07/24 21:17:43;;;;;;;3.63;3.33;;;22.10;61.80;;;;;;5073938;28;20157;-87
2022/07/24 21:20:13;;;;;;;3.90;3.50;;;22.10;61.90;;;;;;5090231;28;20333;-88
2022/07/24 21:22:38;;;;;;;3.47;3.17;;;22.10;61.60;;;;;;5090281;28;20194;-87
2022/07/24 21:25:06;;;;;;;3.40;3.10;;;22.10;61.50;;;;;;5089662;28;20165;-87
2022/07/24 21:27:38;;;;;;;3.70;3.40;;;22.10;61.30;;;;;;5073946;28;20186;-88
2022/07/24 21:30:04;;;;;;;4.30;3.75;;;22.10;61.30;;;;;;5106374;28;20156;-87
2022/07/24 21:32:32;;;;;;;3.83;3.45;;;22.20;61.40;;;;;;5089285;28;20200;-87
2022/07/24 21:34:58;;;;;;;3.65;3.35;;;22.20;61.40;;;;;;5107741;28;20232;-87
2022/07/24 21:37:27;;;;;;;3.50;3.20;;;22.20;61.30;;;;;;5072093;28;20164;-86
2022/07/24 21:39:56;;;;;;;3.60;3.30;;;22.10;61.20;;;;;;5072836;28;20196;-88
2022/07/24 21:42:22;;;;;;;3.58;3.28;;;22.20;61.20;;;;;;5089548;28;20194;-87
2022/07/24 21:44:48;;;;;;;3.50;3.20;;;22.20;61.20;;;;;;5072261;28;20177;-87
2022/07/24 21:47:14;;;;;;;3.38;3.08;;;22.20;61.20;;;;;;5071945;28;20251;-87
2022/07/24 21:49:45;;;;;;;4.00;3.60;;;22.20;61.20;;;;;;5072611;28;20172;-87
2022/07/24 21:52:11;;;;;;;3.95;3.55;;;22.20;61.20;;;;;;5074109;28;20201;-86
2022/07/24 21:54:39;;;;;;;3.97;3.58;;;22.20;61.20;;;;;;5072424;28;20309;-87
2022/07/24 21:57:05;;;;;;;3.70;3.40;;;22.20;61.20;;;;;;5089071;28;20258;-87
2022/07/24 21:59:32;;;;;;;3.83;3.42;;;22.20;61.20;;;;;;5105336;28;20194;-87
2022/07/24 22:02:01;;;;;;;4.07;3.67;;;22.20;61.50;;;;;;5072743;28;20610;-87
2022/07/24 22:04:29;;;;;;;4.10;3.70;;;22.20;61.20;;;;;;5051909;28;20181;-87
2022/07/24 22:07:03;;;;;;;4.20;3.80;;;22.20;61.10;;;;;;5035377;28;20204;-87
2022/07/24 22:09:30;;;;;;;3.80;3.40;;;22.20;61.10;;;;;;5036551;28;20198;-87
2022/07/24 22:11:59;;;;;;;4.00;3.60;;;22.20;61.10;;;;;;5050480;28;20224;-87
2022/07/24 22:14:27;;;;;;;4.70;3.85;;;22.20;61.20;;;;;;5051179;28;20672;-87
2022/07/24 22:16:53;;;;;;;4.00;3.70;;;22.20;61.10;;;;;;5068547;28;20172;-87
2022/07/24 22:19:20;;;;;;;4.28;3.88;;;22.20;61.10;;;;;;5051047;28;20181;-86
2022/07/24 22:21:47;;;;;;;3.90;3.53;;;22.20;61.00;;;;;;5035477;28;20169;-87
2022/07/24 22:24:14;;;;;;;4.00;3.60;;;22.30;61.10;;;;;;5051782;28;20241;-87
2022/07/24 22:26:43;;;;;;;4.10;3.70;;;22.20;61.00;;;;;;5008268;28;20194;-87
2022/07/24 22:29:11;;;;;;;4.20;3.80;;;22.30;61.20;;;;;;4992415;28;20195;-87
2022/07/24 22:31:41;;;;;;;4.20;3.80;;;22.30;61.20;;;;;;4992286;28;20704;-87
2022/07/24 22:34:10;;;;;;;3.97;3.63;;;22.20;61.10;;;;;;4969396;28;20203;-87
2022/07/24 22:36:39;;;;;;;4.80;3.95;;;22.20;61.10;;;;;;4988516;28;20195;-87
2022/07/24 22:39:06;;;;;;;4.35;3.92;;;22.20;61.00;;;;;;4988599;28;20179;-86
2022/07/24 22:41:32;;;;;;;4.25;3.85;;;22.20;61.10;;;;;;4972630;28;20184;-86
2022/07/24 22:43:58;;;;;;;4.28;3.88;;;22.20;61.10;;;;;;4987650;28;20187;-87
2022/07/24 22:46:31;;;;;;;4.22;3.83;;;22.20;61.20;;;;;;4988050;28;20234;-87
2022/07/24 22:48:58;;;;;;;4.38;3.97;;;22.20;61.20;;;;;;4934073;29;20225;-87
2022/07/24 22:51:25;;;;;;;4.10;3.70;;;22.20;61.20;;;;;;4949720;29;20252;-87
2022/07/24 22:53:52;;;;;;;4.07;3.67;;;22.20;61.30;;;;;;4950075;29;20225;-87
2022/07/24 22:56:20;;;;;;;4.30;3.90;;;22.20;61.30;;;;;;4950429;29;20173;-87
2022/07/24 22:58:47;;;;;;;4.20;3.80;;;22.20;61.30;;;;;;4974089;28;20191;-87
2022/07/24 23:01:15;;;;;;;4.28;3.88;;;22.20;61.30;;;;;;4991626;28;20646;-88
2022/07/24 23:03:43;;;;;;;4.20;3.75;;;22.20;61.30;;;;;;5008160;28;20179;-87
2022/07/24 23:06:10;;;;;;;4.43;4.03;;;22.20;61.30;;;;;;5029576;28;20640;-87
2022/07/24 23:08:36;;;;;;;4.53;4.07;;;22.20;61.30;;;;;;5047821;28;20192;-87
2022/07/24 23:11:07;;;;;;;4.38;3.97;;;22.20;61.30;;;;;;5023338;28;20190;-87
2022/07/24 23:13:33;;;;;;;3.97;3.58;;;22.10;61.10;;;;;;5024096;28;20211;-87
2022/07/24 23:16:00;;;;;;;4.40;4.00;;;22.20;61.30;;;;;;4991192;28;20222;-87
2022/07/24 23:18:26;;;;;;;4.55;4.13;;;22.20;61.30;;;;;;5008045;28;20174;-87
2022/07/24 23:20:53;;;;;;;4.72;4.25;;;22.20;61.30;;;;;;5025607;28;20246;-87
2022/07/24 23:23:19;;;;;;;4.53;4.13;;;22.20;61.30;;;;;;5027735;28;20179;-87
2022/07/24 23:25:46;;;;;;;4.18;3.78;;;22.30;61.40;;;;;;5026899;28;20206;-87
2022/07/24 23:28:14;;;;;;;4.10;3.70;;;22.20;61.30;;;;;;5027009;28;20171;-88
2022/07/24 23:30:40;;;;;;;5.40;4.40;;;22.20;61.30;;;;;;5027542;28;20190;-87
2022/07/24 23:33:06;;;;;;;4.60;4.20;;;22.20;61.30;;;;;;5023647;28;20211;-86
2022/07/24 23:35:32;;;;;;;4.38;3.97;;;22.20;61.30;;;;;;5007120;28;20179;-87
2022/07/24 23:37:58;;;;;;;4.38;3.97;;;22.20;61.30;;;;;;5007099;28;20207;-88
2022/07/24 23:40:28;;;;;;;4.43;4.03;;;22.20;61.30;;;;;;5007319;28;20177;-88
2022/07/24 23:42:54;;;;;;;3.97;3.58;;;22.20;61.30;;;;;;5024381;28;20242;-87
2022/07/24 23:45:22;;;;;;;4.30;3.90;;;22.20;61.40;;;;;;4994234;28;20197;-87
2022/07/24 23:47:49;;;;;;;4.65;4.18;;;22.20;61.40;;;;;;5011314;28;20263;-87
2022/07/24 23:50:17;;;;;;;4.50;4.10;;;22.20;61.40;;;;;;5010964;28;20171;-88
2022/07/24 23:52:45;;;;;;;5.00;4.15;;;22.20;61.40;;;;;;5010115;28;20269;-87
2022/07/24 23:55:14;;;;;;;4.18;3.78;;;22.20;61.40;;;;;;5004101;28;20670;-88
2022/07/24 23:57:41;;;;;;;4.20;3.80;;;22.20;61.40;;;;;;5008469;28;20187;-87
